KCMH/CMH METAR and TAF weather

Enter ICAO airport designator
Station Type Date Time Source
KCMH METAR 2022/08/16 17:51 UTC NOAA

KCMH 161751Z 36006KT 10SM SCT029 BKN041 23/17 A3002 RMK AO2 SLP161 T02330167 10239 20167 50002


Station Type Date Time Source
KCMH Decoded METAR 2022/08/16 17:51 UTC NOAA

PORT COLUMBUS INTERNATIONAL AIRPORT, OH, United States (KCMH) 40-00N 82-53W 247M
Aug 16, 2022 - 01:51 PM EDT / 2022.08.16 1751 UTC
Wind: from the N (360 degrees) at 7 MPH (6 KT):0
Visibility: 10 mile(s):0
Sky conditions: mostly cloudy
Temperature: 73.9 F (23.3 C)
Dew Point: 62.1 F (16.7 C)
Relative Humidity: 66%
Pressure (altimeter): 30.02 in. Hg (1016 hPa)
Pressure tendency: 0.01 inches (0.2 hPa) higher than three hours ago
ob: KCMH 161751Z 36006KT 10SM SCT029 BKN041 23/17 A3002 RMK AO2 SLP161 T02330167 10239 20167 50002
cycle: 18

Station Type Date Time Source
KCMH TAF 2022/08/16 18:22 UTC NOAA

TAF KCMH 161720Z 1618/1718 04008KT P6SM BKN035
FM162000 05008KT P6SM VCSH BKN040
FM170000 05005KT P6SM SCT250
FM171500 05006KT P6SM SCT040

Example: see airport list